sensor_id;sensor_type;location;lat;lon;timestamp;P1;durP1;ratioP1;P2;durP2;ratioP2
4786;SDS011;62338;48.832;9.422;2022-10-22T00:01:59;5.70;;;1.50;;
4786;SDS011;62338;48.832;9.422;2022-10-22T00:04:00;3.30;;;1.80;;
4786;SDS011;62338;48.832;9.422;2022-10-22T00:06:02;5.40;;;1.97;;
4786;SDS011;62338;48.832;9.422;2022-10-22T00:08:04;4.80;;;1.93;;
4786;SDS011;62338;48.832;9.422;2022-10-22T00:10:06;3.37;;;1.53;;
4786;SDS011;62338;48.832;9.422;2022-10-22T00:12:09;6.80;;;1.80;;
4786;SDS011;62338;48.832;9.422;2022-10-22T00:14:11;4.63;;;1.60;;
4786;SDS011;62338;48.832;9.422;2022-10-22T00:16:13;3.03;;;1.70;;
4786;SDS011;62338;48.832;9.422;2022-10-22T00:18:15;3.73;;;1.30;;
4786;SDS011;62338;48.832;9.422;2022-10-22T00:20:17;5.73;;;1.50;;
4786;SDS011;62338;48.832;9.422;2022-10-22T00:22:18;3.30;;;1.30;;
4786;SDS011;62338;48.832;9.422;2022-10-22T00:24:20;2.93;;;1.80;;
4786;SDS011;62338;48.832;9.422;2022-10-22T00:26:22;3.20;;;1.67;;
4786;SDS011;62338;48.832;9.422;2022-10-22T00:28:24;4.37;;;1.70;;
4786;SDS011;62338;48.832;9.422;2022-10-22T00:30:26;4.97;;;1.73;;
4786;SDS011;62338;48.832;9.422;2022-10-22T00:32:28;4.93;;;1.70;;
4786;SDS011;62338;48.832;9.422;2022-10-22T00:34:30;4.37;;;1.77;;
4786;SDS011;62338;48.832;9.422;2022-10-22T00:36:32;5.07;;;1.80;;
4786;SDS011;62338;48.832;9.422;2022-10-22T00:38:34;4.43;;;1.43;;
4786;SDS011;62338;48.832;9.422;2022-10-22T00:40:36;2.60;;;1.57;;
4786;SDS011;62338;48.832;9.422;2022-10-22T00:42:37;2.50;;;1.23;;
4786;SDS011;62338;48.832;9.422;2022-10-22T00:47:03;3.97;;;1.50;;
4786;SDS011;62338;48.832;9.422;2022-10-22T00:49:04;2.90;;;1.60;;
4786;SDS011;62338;48.832;9.422;2022-10-22T00:51:06;2.17;;;1.10;;
4786;SDS011;62338;48.832;9.422;2022-10-22T00:53:13;3.53;;;1.30;;
4786;SDS011;62338;48.832;9.422;2022-10-22T00:55:17;5.00;;;1.53;;
4786;SDS011;62338;48.832;9.422;2022-10-22T00:57:19;3.50;;;1.40;;
4786;SDS011;62338;48.832;9.422;2022-10-22T00:59:22;3.20;;;1.27;;
4786;SDS011;62338;48.832;9.422;2022-10-22T01:01:25;2.57;;;1.20;;
4786;SDS011;62338;48.832;9.422;2022-10-22T01:03:31;4.17;;;1.40;;
4786;SDS011;62338;48.832;9.422;2022-10-22T01:05:38;3.47;;;1.60;;
4786;SDS011;62338;48.832;9.422;2022-10-22T01:07:45;3.23;;;1.30;;
4786;SDS011;62338;48.832;9.422;2022-10-22T01:14:13;3.53;;;1.20;;
4786;SDS011;62338;48.832;9.422;2022-10-22T01:18:53;2.73;;;1.30;;
4786;SDS011;62338;48.832;9.422;2022-10-22T01:28:57;2.43;;;1.30;;
4786;SDS011;62338;48.832;9.422;2022-10-22T01:31:10;12.90;;;1.93;;
4786;SDS011;62338;48.832;9.422;2022-10-22T01:33:16;3.93;;;1.80;;
4786;SDS011;62338;48.832;9.422;2022-10-22T01:35:26;5.30;;;1.47;;
4786;SDS011;62338;48.832;9.422;2022-10-22T01:37:35;6.73;;;1.43;;
4786;SDS011;62338;48.832;9.422;2022-10-22T01:39:44;3.30;;;1.53;;
4786;SDS011;62338;48.832;9.422;2022-10-22T01:41:47;4.33;;;2.07;;
4786;SDS011;62338;48.832;9.422;2022-10-22T01:43:49;4.57;;;1.70;;
4786;SDS011;62338;48.832;9.422;2022-10-22T01:45:53;6.10;;;2.10;;
4786;SDS011;62338;48.832;9.422;2022-10-22T01:59:58;5.80;;;1.97;;
4786;SDS011;62338;48.832;9.422;2022-10-22T02:02:13;6.20;;;2.20;;
4786;SDS011;62338;48.832;9.422;2022-10-22T02:04:48;4.50;;;1.80;;
4786;SDS011;62338;48.832;9.422;2022-10-22T02:06:55;5.37;;;1.80;;
4786;SDS011;62338;48.832;9.422;2022-10-22T02:09:00;7.07;;;1.77;;
4786;SDS011;62338;48.832;9.422;2022-10-22T02:11:03;2.87;;;1.80;;
4786;SDS011;62338;48.832;9.422;2022-10-22T02:13:07;3.90;;;1.50;;
4786;SDS011;62338;48.832;9.422;2022-10-22T02:15:12;3.23;;;1.70;;
4786;SDS011;62338;48.832;9.422;2022-10-22T02:17:18;2.90;;;1.50;;
4786;SDS011;62338;48.832;9.422;2022-10-22T02:21:25;6.53;;;1.90;;
4786;SDS011;62338;48.832;9.422;2022-10-22T02:23:28;3.60;;;1.90;;
4786;SDS011;62338;48.832;9.422;2022-10-22T02:25:31;4.13;;;1.47;;
4786;SDS011;62338;48.832;9.422;2022-10-22T02:27:40;3.30;;;1.63;;
4786;SDS011;62338;48.832;9.422;2022-10-22T02:29:54;2.53;;;1.50;;
4786;SDS011;62338;48.832;9.422;2022-10-22T02:32:02;2.73;;;1.60;;
4786;SDS011;62338;48.832;9.422;2022-10-22T02:34:13;3.63;;;1.70;;
4786;SDS011;62338;48.832;9.422;2022-10-22T02:36:20;3.43;;;1.53;;
4786;SDS011;62338;48.832;9.422;2022-10-22T02:38:23;14.90;;;1.70;;
4786;SDS011;62338;48.832;9.422;2022-10-22T02:40:26;3.53;;;1.40;;
4786;SDS011;62338;48.832;9.422;2022-10-22T02:42:30;2.40;;;1.23;;
4786;SDS011;62338;48.832;9.422;2022-10-22T02:44:33;4.63;;;1.53;;
4786;SDS011;62338;48.832;9.422;2022-10-22T02:46:35;3.73;;;1.80;;
4786;SDS011;62338;48.832;9.422;2022-10-22T02:48:38;4.50;;;2.20;;
4786;SDS011;62338;48.832;9.422;2022-10-22T02:50:40;2.90;;;1.90;;
4786;SDS011;62338;48.832;9.422;2022-10-22T02:52:42;4.23;;;1.73;;
4786;SDS011;62338;48.832;9.422;2022-10-22T02:54:44;4.03;;;1.70;;
4786;SDS011;62338;48.832;9.422;2022-10-22T02:56:46;2.50;;;1.63;;
4786;SDS011;62338;48.832;9.422;2022-10-22T02:58:47;3.03;;;1.80;;
4786;SDS011;62338;48.832;9.422;2022-10-22T03:00:49;3.70;;;1.70;;
4786;SDS011;62338;48.832;9.422;2022-10-22T03:02:51;3.60;;;1.50;;
4786;SDS011;62338;48.832;9.422;2022-10-22T03:04:52;3.30;;;1.60;;
4786;SDS011;62338;48.832;9.422;2022-10-22T03:06:55;4.00;;;1.40;;
4786;SDS011;62338;48.832;9.422;2022-10-22T03:08:56;10.63;;;1.73;;
4786;SDS011;62338;48.832;9.422;2022-10-22T03:10:58;3.37;;;1.37;;
4786;SDS011;62338;48.832;9.422;2022-10-22T03:13:00;2.40;;;1.37;;
4786;SDS011;62338;48.832;9.422;2022-10-22T03:15:02;2.40;;;1.20;;
4786;SDS011;62338;48.832;9.422;2022-10-22T03:17:04;2.63;;;1.30;;
4786;SDS011;62338;48.832;9.422;2022-10-22T03:19:06;2.97;;;1.30;;
4786;SDS011;62338;48.832;9.422;2022-10-22T03:23:29;3.20;;;1.37;;
4786;SDS011;62338;48.832;9.422;2022-10-22T03:25:32;6.70;;;1.80;;
4786;SDS011;62338;48.832;9.422;2022-10-22T03:27:35;2.60;;;1.30;;
4786;SDS011;62338;48.832;9.422;2022-10-22T03:29:39;13.90;;;1.60;;
4786;SDS011;62338;48.832;9.422;2022-10-22T03:31:42;2.60;;;1.47;;
4786;SDS011;62338;48.832;9.422;2022-10-22T03:33:44;2.67;;;1.40;;
4786;SDS011;62338;48.832;9.422;2022-10-22T03:35:47;4.30;;;1.37;;
4786;SDS011;62338;48.832;9.422;2022-10-22T03:37:49;2.50;;;1.40;;
4786;SDS011;62338;48.832;9.422;2022-10-22T03:39:51;3.50;;;1.50;;
4786;SDS011;62338;48.832;9.422;2022-10-22T03:41:53;2.93;;;1.37;;
4786;SDS011;62338;48.832;9.422;2022-10-22T03:43:55;2.30;;;1.40;;
4786;SDS011;62338;48.832;9.422;2022-10-22T03:45:57;2.47;;;1.20;;
4786;SDS011;62338;48.832;9.422;2022-10-22T03:47:59;5.10;;;1.97;;
4786;SDS011;62338;48.832;9.422;2022-10-22T03:50:01;2.97;;;1.30;;
4786;SDS011;62338;48.832;9.422;2022-10-22T03:52:04;6.90;;;1.40;;
4786;SDS011;62338;48.832;9.422;2022-10-22T03:54:10;4.13;;;1.37;;
4786;SDS011;62338;48.832;9.422;2022-10-22T03:56:12;2.40;;;1.40;;
4786;SDS011;62338;48.832;9.422;2022-10-22T03:58:14;2.30;;;1.17;;
4786;SDS011;62338;48.832;9.422;2022-10-22T04:00:16;2.97;;;1.40;;
4786;SDS011;62338;48.832;9.422;2022-10-22T04:02:17;5.00;;;1.80;;
4786;SDS011;62338;48.832;9.422;2022-10-22T04:04:19;2.10;;;1.30;;
4786;SDS011;62338;48.832;9.422;2022-10-22T04:06:21;4.37;;;1.43;;
4786;SDS011;62338;48.832;9.422;2022-10-22T04:08:23;3.37;;;1.47;;
4786;SDS011;62338;48.832;9.422;2022-10-22T04:10:25;5.53;;;1.57;;
4786;SDS011;62338;48.832;9.422;2022-10-22T04:12:26;4.10;;;1.40;;
4786;SDS011;62338;48.832;9.422;2022-10-22T04:14:28;8.20;;;1.50;;
4786;SDS011;62338;48.832;9.422;2022-10-22T04:16:30;2.70;;;1.30;;
4786;SDS011;62338;48.832;9.422;2022-10-22T04:18:33;3.80;;;1.53;;
4786;SDS011;62338;48.832;9.422;2022-10-22T04:20:34;3.60;;;1.30;;
4786;SDS011;62338;48.832;9.422;2022-10-22T04:22:36;6.10;;;1.70;;
4786;SDS011;62338;48.832;9.422;2022-10-22T04:24:38;2.57;;;1.47;;
4786;SDS011;62338;48.832;9.422;2022-10-22T04:26:39;5.90;;;1.33;;
4786;SDS011;62338;48.832;9.422;2022-10-22T04:28:43;3.03;;;1.60;;
4786;SDS011;62338;48.832;9.422;2022-10-22T04:30:46;4.37;;;1.53;;
4786;SDS011;62338;48.832;9.422;2022-10-22T04:32:47;2.53;;;1.50;;
4786;SDS011;62338;48.832;9.422;2022-10-22T04:34:49;5.10;;;1.87;;
4786;SDS011;62338;48.832;9.422;2022-10-22T04:36:51;3.50;;;1.40;;
4786;SDS011;62338;48.832;9.422;2022-10-22T04:38:54;12.63;;;2.07;;
4786;SDS011;62338;48.832;9.422;2022-10-22T04:40:57;3.03;;;1.40;;
4786;SDS011;62338;48.832;9.422;2022-10-22T04:43:18;6.40;;;1.70;;
4786;SDS011;62338;48.832;9.422;2022-10-22T04:45:20;2.67;;;1.50;;
4786;SDS011;62338;48.832;9.422;2022-10-22T04:47:21;3.33;;;1.53;;
4786;SDS011;62338;48.832;9.422;2022-10-22T04:49:23;4.47;;;1.50;;
4786;SDS011;62338;48.832;9.422;2022-10-22T04:51:25;2.47;;;1.30;;
4786;SDS011;62338;48.832;9.422;2022-10-22T04:53:27;8.47;;;1.37;;
4786;SDS011;62338;48.832;9.422;2022-10-22T04:55:29;4.63;;;1.50;;
4786;SDS011;62338;48.832;9.422;2022-10-22T04:57:36;2.60;;;1.40;;
4786;SDS011;62338;48.832;9.422;2022-10-22T04:59:38;3.33;;;1.30;;
4786;SDS011;62338;48.832;9.422;2022-10-22T05:01:41;3.03;;;1.30;;
4786;SDS011;62338;48.832;9.422;2022-10-22T05:03:44;2.77;;;1.20;;
4786;SDS011;62338;48.832;9.422;2022-10-22T05:05:46;3.80;;;1.23;;
4786;SDS011;62338;48.832;9.422;2022-10-22T05:07:49;3.73;;;1.70;;
4786;SDS011;62338;48.832;9.422;2022-10-22T05:09:52;2.43;;;1.40;;
4786;SDS011;62338;48.832;9.422;2022-10-22T05:11:54;3.43;;;1.30;;
4786;SDS011;62338;48.832;9.422;2022-10-22T05:13:55;1.97;;;1.07;;
4786;SDS011;62338;48.832;9.422;2022-10-22T05:15:59;5.00;;;1.30;;
4786;SDS011;62338;48.832;9.422;2022-10-22T05:18:02;2.87;;;1.43;;
4786;SDS011;62338;48.832;9.422;2022-10-22T05:20:04;3.23;;;1.50;;
4786;SDS011;62338;48.832;9.422;2022-10-22T05:22:06;2.23;;;1.10;;
4786;SDS011;62338;48.832;9.422;2022-10-22T05:24:08;2.57;;;1.13;;
4786;SDS011;62338;48.832;9.422;2022-10-22T05:26:10;3.23;;;1.27;;
4786;SDS011;62338;48.832;9.422;2022-10-22T05:28:13;2.93;;;1.20;;
4786;SDS011;62338;48.832;9.422;2022-10-22T05:30:15;4.30;;;1.27;;
4786;SDS011;62338;48.832;9.422;2022-10-22T05:32:17;3.77;;;1.33;;
4786;SDS011;62338;48.832;9.422;2022-10-22T05:34:19;4.03;;;1.30;;
4786;SDS011;62338;48.832;9.422;2022-10-22T05:36:21;2.53;;;1.13;;
4786;SDS011;62338;48.832;9.422;2022-10-22T05:38:23;4.40;;;1.37;;
4786;SDS011;62338;48.832;9.422;2022-10-22T05:40:25;5.47;;;2.50;;
4786;SDS011;62338;48.832;9.422;2022-10-22T05:42:31;4.10;;;2.10;;
4786;SDS011;62338;48.832;9.422;2022-10-22T05:44:33;7.67;;;2.87;;
4786;SDS011;62338;48.832;9.422;2022-10-22T05:46:35;4.63;;;3.13;;
4786;SDS011;62338;48.832;9.422;2022-10-22T05:48:37;21.53;;;11.53;;
4786;SDS011;62338;48.832;9.422;2022-10-22T05:50:39;32.00;;;18.60;;
4786;SDS011;62338;48.832;9.422;2022-10-22T05:52:40;13.13;;;6.27;;
4786;SDS011;62338;48.832;9.422;2022-10-22T05:54:43;7.73;;;3.80;;
4786;SDS011;62338;48.832;9.422;2022-10-22T05:56:44;13.67;;;6.80;;
4786;SDS011;62338;48.832;9.422;2022-10-22T05:58:46;12.53;;;5.00;;
4786;SDS011;62338;48.832;9.422;2022-10-22T06:00:48;11.03;;;5.60;;
4786;SDS011;62338;48.832;9.422;2022-10-22T06:02:50;31.60;;;22.40;;
4786;SDS011;62338;48.832;9.422;2022-10-22T06:04:52;59.27;;;37.80;;
4786;SDS011;62338;48.832;9.422;2022-10-22T06:06:55;47.47;;;29.57;;
4786;SDS011;62338;48.832;9.422;2022-10-22T06:08:59;23.67;;;13.93;;
4786;SDS011;62338;48.832;9.422;2022-10-22T06:11:03;23.43;;;12.80;;
4786;SDS011;62338;48.832;9.422;2022-10-22T06:13:05;16.07;;;11.00;;
4786;SDS011;62338;48.832;9.422;2022-10-22T06:15:11;4.47;;;2.83;;
4786;SDS011;62338;48.832;9.422;2022-10-22T06:17:14;6.20;;;2.17;;
4786;SDS011;62338;48.832;9.422;2022-10-22T06:19:17;4.13;;;2.50;;
4786;SDS011;62338;48.832;9.422;2022-10-22T06:21:20;5.40;;;3.53;;
4786;SDS011;62338;48.832;9.422;2022-10-22T06:23:22;4.93;;;3.13;;
4786;SDS011;62338;48.832;9.422;2022-10-22T06:25:23;3.20;;;1.37;;
4786;SDS011;62338;48.832;9.422;2022-10-22T06:27:25;2.40;;;1.30;;
4786;SDS011;62338;48.832;9.422;2022-10-22T06:29:27;2.67;;;1.10;;
4786;SDS011;62338;48.832;9.422;2022-10-22T06:31:28;2.90;;;2.20;;
4786;SDS011;62338;48.832;9.422;2022-10-22T06:33:39;2.00;;;1.23;;
4786;SDS011;62338;48.832;9.422;2022-10-22T06:35:43;5.13;;;1.30;;
4786;SDS011;62338;48.832;9.422;2022-10-22T06:37:45;2.07;;;1.10;;
4786;SDS011;62338;48.832;9.422;2022-10-22T06:39:47;4.70;;;1.20;;
4786;SDS011;62338;48.832;9.422;2022-10-22T06:41:49;3.87;;;1.20;;
4786;SDS011;62338;48.832;9.422;2022-10-22T06:43:51;5.23;;;1.40;;
4786;SDS011;62338;48.832;9.422;2022-10-22T06:45:57;3.20;;;2.00;;
4786;SDS011;62338;48.832;9.422;2022-10-22T06:48:00;3.53;;;1.60;;
4786;SDS011;62338;48.832;9.422;2022-10-22T06:50:02;2.87;;;1.40;;
4786;SDS011;62338;48.832;9.422;2022-10-22T06:52:04;1.97;;;1.10;;
4786;SDS011;62338;48.832;9.422;2022-10-22T06:54:05;1.97;;;1.20;;
4786;SDS011;62338;48.832;9.422;2022-10-22T06:56:08;2.00;;;1.00;;
4786;SDS011;62338;48.832;9.422;2022-10-22T06:58:13;4.13;;;1.07;;
4786;SDS011;62338;48.832;9.422;2022-10-22T07:00:15;2.60;;;0.93;;
4786;SDS011;62338;48.832;9.422;2022-10-22T07:02:17;2.00;;;1.20;;
4786;SDS011;62338;48.832;9.422;2022-10-22T07:04:18;4.70;;;1.17;;
4786;SDS011;62338;48.832;9.422;2022-10-22T07:06:22;4.33;;;1.10;;
4786;SDS011;62338;48.832;9.422;2022-10-22T07:08:24;1.90;;;1.10;;
4786;SDS011;62338;48.832;9.422;2022-10-22T07:10:26;3.57;;;1.13;;
4786;SDS011;62338;48.832;9.422;2022-10-22T07:12:32;2.70;;;1.10;;
4786;SDS011;62338;48.832;9.422;2022-10-22T07:14:34;2.70;;;0.90;;
4786;SDS011;62338;48.832;9.422;2022-10-22T07:16:35;2.03;;;1.10;;
4786;SDS011;62338;48.832;9.422;2022-10-22T07:18:38;2.80;;;1.00;;
4786;SDS011;62338;48.832;9.422;2022-10-22T07:20:40;2.40;;;1.00;;
4786;SDS011;62338;48.832;9.422;2022-10-22T07:22:42;2.23;;;1.17;;
4786;SDS011;62338;48.832;9.422;2022-10-22T07:24:44;2.47;;;1.13;;
4786;SDS011;62338;48.832;9.422;2022-10-22T07:26:45;3.13;;;1.33;;
4786;SDS011;62338;48.832;9.422;2022-10-22T07:28:47;3.40;;;1.17;;
4786;SDS011;62338;48.832;9.422;2022-10-22T07:30:49;4.30;;;1.07;;
4786;SDS011;62338;48.832;9.422;2022-10-22T07:32:51;4.23;;;1.00;;
4786;SDS011;62338;48.832;9.422;2022-10-22T07:34:53;2.00;;;1.00;;
4786;SDS011;62338;48.832;9.422;2022-10-22T07:36:55;2.30;;;1.23;;
4786;SDS011;62338;48.832;9.422;2022-10-22T07:38:57;2.73;;;1.23;;
4786;SDS011;62338;48.832;9.422;2022-10-22T07:41:00;3.80;;;1.17;;
4786;SDS011;62338;48.832;9.422;2022-10-22T07:43:03;2.90;;;1.23;;
4786;SDS011;62338;48.832;9.422;2022-10-22T07:45:05;3.97;;;1.07;;
4786;SDS011;62338;48.832;9.422;2022-10-22T07:47:07;5.10;;;1.10;;
4786;SDS011;62338;48.832;9.422;2022-10-22T07:49:09;2.30;;;1.00;;
4786;SDS011;62338;48.832;9.422;2022-10-22T07:51:11;2.13;;;0.90;;
4786;SDS011;62338;48.832;9.422;2022-10-22T07:53:13;2.10;;;1.10;;
4786;SDS011;62338;48.832;9.422;2022-10-22T07:55:14;2.43;;;1.20;;
4786;SDS011;62338;48.832;9.422;2022-10-22T07:57:16;2.30;;;1.20;;
4786;SDS011;62338;48.832;9.422;2022-10-22T07:59:18;7.40;;;1.40;;
4786;SDS011;62338;48.832;9.422;2022-10-22T08:01:19;3.00;;;1.13;;
4786;SDS011;62338;48.832;9.422;2022-10-22T08:03:21;4.00;;;1.30;;
4786;SDS011;62338;48.832;9.422;2022-10-22T08:05:23;2.43;;;1.10;;
4786;SDS011;62338;48.832;9.422;2022-10-22T08:07:25;2.30;;;1.30;;
4786;SDS011;62338;48.832;9.422;2022-10-22T08:09:28;2.03;;;1.00;;
4786;SDS011;62338;48.832;9.422;2022-10-22T08:11:30;3.10;;;1.27;;
4786;SDS011;62338;48.832;9.422;2022-10-22T08:13:33;3.83;;;1.30;;
4786;SDS011;62338;48.832;9.422;2022-10-22T08:15:35;2.53;;;1.00;;
4786;SDS011;62338;48.832;9.422;2022-10-22T08:17:37;3.07;;;0.90;;
4786;SDS011;62338;48.832;9.422;2022-10-22T08:19:39;3.57;;;1.10;;
4786;SDS011;62338;48.832;9.422;2022-10-22T08:21:41;2.70;;;1.13;;
4786;SDS011;62338;48.832;9.422;2022-10-22T08:23:42;4.70;;;1.30;;
4786;SDS011;62338;48.832;9.422;2022-10-22T08:25:44;4.30;;;1.10;;
4786;SDS011;62338;48.832;9.422;2022-10-22T08:27:46;2.20;;;1.10;;
4786;SDS011;62338;48.832;9.422;2022-10-22T08:29:48;6.37;;;1.10;;
4786;SDS011;62338;48.832;9.422;2022-10-22T08:31:50;2.50;;;1.17;;
4786;SDS011;62338;48.832;9.422;2022-10-22T08:33:51;3.90;;;1.23;;
4786;SDS011;62338;48.832;9.422;2022-10-22T08:35:53;10.27;;;1.90;;
4786;SDS011;62338;48.832;9.422;2022-10-22T08:37:55;3.80;;;2.03;;
4786;SDS011;62338;48.832;9.422;2022-10-22T08:39:57;3.13;;;1.00;;
4786;SDS011;62338;48.832;9.422;2022-10-22T08:44:54;3.67;;;1.73;;
4786;SDS011;62338;48.832;9.422;2022-10-22T08:47:11;5.47;;;1.07;;
4786;SDS011;62338;48.832;9.422;2022-10-22T08:49:26;4.03;;;1.00;;
4786;SDS011;62338;48.832;9.422;2022-10-22T08:51:37;3.33;;;0.90;;
4786;SDS011;62338;48.832;9.422;2022-10-22T08:54:05;2.80;;;1.00;;
4786;SDS011;62338;48.832;9.422;2022-10-22T08:56:25;2.67;;;0.93;;
4786;SDS011;62338;48.832;9.422;2022-10-22T09:00:45;4.20;;;1.23;;
4786;SDS011;62338;48.832;9.422;2022-10-22T09:03:05;2.47;;;0.97;;
4786;SDS011;62338;48.832;9.422;2022-10-22T09:07:12;4.90;;;1.30;;
4786;SDS011;62338;48.832;9.422;2022-10-22T09:09:16;3.20;;;1.10;;
4786;SDS011;62338;48.832;9.422;2022-10-22T09:13:28;7.37;;;1.40;;
4786;SDS011;62338;48.832;9.422;2022-10-22T09:15:30;5.30;;;1.20;;
4786;SDS011;62338;48.832;9.422;2022-10-22T09:19:39;3.00;;;1.30;;
4786;SDS011;62338;48.832;9.422;2022-10-22T09:24:08;2.50;;;1.10;;
4786;SDS011;62338;48.832;9.422;2022-10-22T09:26:14;7.00;;;1.40;;
4786;SDS011;62338;48.832;9.422;2022-10-22T09:28:16;4.20;;;1.40;;
4786;SDS011;62338;48.832;9.422;2022-10-22T09:30:20;3.53;;;1.20;;
4786;SDS011;62338;48.832;9.422;2022-10-22T09:32:24;5.13;;;1.20;;
4786;SDS011;62338;48.832;9.422;2022-10-22T09:34:27;2.93;;;1.20;;
4786;SDS011;62338;48.832;9.422;2022-10-22T09:36:29;6.20;;;1.30;;
4786;SDS011;62338;48.832;9.422;2022-10-22T09:38:48;3.77;;;1.10;;
4786;SDS011;62338;48.832;9.422;2022-10-22T09:40:53;3.40;;;1.20;;
4786;SDS011;62338;48.832;9.422;2022-10-22T09:42:56;3.30;;;1.30;;
4786;SDS011;62338;48.832;9.422;2022-10-22T09:44:58;3.93;;;1.27;;
4786;SDS011;62338;48.832;9.422;2022-10-22T09:47:04;8.00;;;1.30;;
4786;SDS011;62338;48.832;9.422;2022-10-22T09:49:43;3.60;;;1.30;;
4786;SDS011;62338;48.832;9.422;2022-10-22T09:51:57;4.33;;;1.23;;
4786;SDS011;62338;48.832;9.422;2022-10-22T09:54:01;4.80;;;1.10;;
4786;SDS011;62338;48.832;9.422;2022-10-22T09:56:20;5.17;;;1.50;;
4786;SDS011;62338;48.832;9.422;2022-10-22T09:58:28;3.73;;;1.20;;
4786;SDS011;62338;48.832;9.422;2022-10-22T10:00:30;4.73;;;1.20;;
4786;SDS011;62338;48.832;9.422;2022-10-22T10:02:31;3.23;;;1.03;;
4786;SDS011;62338;48.832;9.422;2022-10-22T10:04:49;5.33;;;1.40;;
4786;SDS011;62338;48.832;9.422;2022-10-22T10:06:54;4.83;;;1.23;;
4786;SDS011;62338;48.832;9.422;2022-10-22T10:08:59;3.10;;;1.20;;
4786;SDS011;62338;48.832;9.422;2022-10-22T10:16:07;4.87;;;1.13;;
4786;SDS011;62338;48.832;9.422;2022-10-22T10:27:48;4.77;;;1.87;;
4786;SDS011;62338;48.832;9.422;2022-10-22T10:32:50;5.17;;;1.30;;
4786;SDS011;62338;48.832;9.422;2022-10-22T10:34:35;5.33;;;1.40;;
4786;SDS011;62338;48.832;9.422;2022-10-22T10:39:36;4.70;;;1.50;;
4786;SDS011;62338;48.832;9.422;2022-10-22T10:42:01;3.00;;;1.20;;
4786;SDS011;62338;48.832;9.422;2022-10-22T10:44:24;2.70;;;1.00;;
4786;SDS011;62338;48.832;9.422;2022-10-22T10:47:07;3.87;;;1.60;;
4786;SDS011;62338;48.832;9.422;2022-10-22T10:49:22;3.70;;;1.10;;
4786;SDS011;62338;48.832;9.422;2022-10-22T10:51:52;3.77;;;1.30;;
4786;SDS011;62338;48.832;9.422;2022-10-22T10:58:48;2.50;;;1.07;;
4786;SDS011;62338;48.832;9.422;2022-10-22T11:05:57;4.10;;;1.20;;
4786;SDS011;62338;48.832;9.422;2022-10-22T11:13:00;3.50;;;1.23;;
4786;SDS011;62338;48.832;9.422;2022-10-22T11:15:26;12.40;;;1.23;;
4786;SDS011;62338;48.832;9.422;2022-10-22T11:17:40;4.80;;;1.30;;
4786;SDS011;62338;48.832;9.422;2022-10-22T11:19:55;4.40;;;1.00;;
4786;SDS011;62338;48.832;9.422;2022-10-22T11:22:08;2.77;;;1.10;;
4786;SDS011;62338;48.832;9.422;2022-10-22T11:24:29;6.97;;;1.40;;
4786;SDS011;62338;48.832;9.422;2022-10-22T11:26:52;3.10;;;1.27;;
4786;SDS011;62338;48.832;9.422;2022-10-22T11:29:01;5.30;;;1.37;;
4786;SDS011;62338;48.832;9.422;2022-10-22T11:31:13;6.77;;;1.50;;
4786;SDS011;62338;48.832;9.422;2022-10-22T11:33:17;5.70;;;1.80;;
4786;SDS011;62338;48.832;9.422;2022-10-22T11:35:26;5.53;;;1.60;;
4786;SDS011;62338;48.832;9.422;2022-10-22T11:37:32;4.40;;;1.23;;
4786;SDS011;62338;48.832;9.422;2022-10-22T11:39:50;4.70;;;1.80;;
4786;SDS011;62338;48.832;9.422;2022-10-22T11:41:58;3.63;;;1.23;;
4786;SDS011;62338;48.832;9.422;2022-10-22T11:44:09;6.83;;;1.40;;
4786;SDS011;62338;48.832;9.422;2022-10-22T11:48:22;4.13;;;1.40;;
4786;SDS011;62338;48.832;9.422;2022-10-22T11:52:58;3.70;;;1.20;;
4786;SDS011;62338;48.832;9.422;2022-10-22T11:55:26;3.70;;;1.30;;
4786;SDS011;62338;48.832;9.422;2022-10-22T11:57:36;4.87;;;1.33;;
4786;SDS011;62338;48.832;9.422;2022-10-22T11:59:50;5.07;;;1.40;;
4786;SDS011;62338;48.832;9.422;2022-10-22T12:01:59;3.17;;;1.13;;
4786;SDS011;62338;48.832;9.422;2022-10-22T12:04:22;6.80;;;1.40;;
4786;SDS011;62338;48.832;9.422;2022-10-22T12:06:24;3.77;;;1.30;;
4786;SDS011;62338;48.832;9.422;2022-10-22T12:08:27;3.72;;;1.30;;
4786;SDS011;62338;48.832;9.422;2022-10-22T12:10:33;4.40;;;1.67;;
4786;SDS011;62338;48.832;9.422;2022-10-22T12:12:37;4.00;;;1.10;;
4786;SDS011;62338;48.832;9.422;2022-10-22T12:14:53;4.30;;;1.17;;
4786;SDS011;62338;48.832;9.422;2022-10-22T12:16:58;7.03;;;1.50;;
4786;SDS011;62338;48.832;9.422;2022-10-22T12:19:10;3.60;;;1.30;;
4786;SDS011;62338;48.832;9.422;2022-10-22T12:21:18;5.28;;;1.15;;
4786;SDS011;62338;48.832;9.422;2022-10-22T12:23:20;3.47;;;1.15;;
4786;SDS011;62338;48.832;9.422;2022-10-22T12:25:30;5.70;;;1.30;;
4786;SDS011;62338;48.832;9.422;2022-10-22T12:27:37;4.63;;;1.27;;
4786;SDS011;62338;48.832;9.422;2022-10-22T12:29:41;8.23;;;1.55;;
4786;SDS011;62338;48.832;9.422;2022-10-22T12:31:43;5.20;;;1.30;;
4786;SDS011;62338;48.832;9.422;2022-10-22T12:33:46;10.32;;;2.13;;
4786;SDS011;62338;48.832;9.422;2022-10-22T12:35:49;4.95;;;1.45;;
4786;SDS011;62338;48.832;9.422;2022-10-22T12:37:55;4.13;;;1.35;;
4786;SDS011;62338;48.832;9.422;2022-10-22T12:39:58;5.05;;;1.30;;
4786;SDS011;62338;48.832;9.422;2022-10-22T12:42:03;5.82;;;1.10;;
4786;SDS011;62338;48.832;9.422;2022-10-22T12:44:05;6.30;;;1.40;;
4786;SDS011;62338;48.832;9.422;2022-10-22T12:46:09;3.70;;;1.27;;
4786;SDS011;62338;48.832;9.422;2022-10-22T12:48:15;3.72;;;1.30;;
4786;SDS011;62338;48.832;9.422;2022-10-22T12:50:21;4.00;;;1.20;;
4786;SDS011;62338;48.832;9.422;2022-10-22T12:52:29;5.30;;;1.40;;
4786;SDS011;62338;48.832;9.422;2022-10-22T12:54:31;5.07;;;1.30;;
4786;SDS011;62338;48.832;9.422;2022-10-22T12:56:35;3.60;;;1.52;;
4786;SDS011;62338;48.832;9.422;2022-10-22T12:58:39;5.22;;;1.58;;
4786;SDS011;62338;48.832;9.422;2022-10-22T13:01:02;4.50;;;1.42;;
4786;SDS011;62338;48.832;9.422;2022-10-22T13:03:05;7.35;;;1.63;;
4786;SDS011;62338;48.832;9.422;2022-10-22T13:07:22;5.13;;;1.38;;
4786;SDS011;62338;48.832;9.422;2022-10-22T13:09:25;5.45;;;1.20;;
4786;SDS011;62338;48.832;9.422;2022-10-22T13:11:56;9.35;;;1.65;;
4786;SDS011;62338;48.832;9.422;2022-10-22T13:14:26;4.68;;;1.10;;
4786;SDS011;62338;48.832;9.422;2022-10-22T13:16:30;3.25;;;1.10;;
4786;SDS011;62338;48.832;9.422;2022-10-22T13:18:33;5.53;;;1.40;;
4786;SDS011;62338;48.832;9.422;2022-10-22T13:20:35;4.25;;;1.10;;
4786;SDS011;62338;48.832;9.422;2022-10-22T13:22:38;4.60;;;1.13;;
4786;SDS011;62338;48.832;9.422;2022-10-22T13:24:47;3.08;;;1.17;;
4786;SDS011;62338;48.832;9.422;2022-10-22T13:26:51;5.13;;;1.08;;
4786;SDS011;62338;48.832;9.422;2022-10-22T13:28:57;4.47;;;1.25;;
4786;SDS011;62338;48.832;9.422;2022-10-22T13:31:07;4.95;;;1.30;;
4786;SDS011;62338;48.832;9.422;2022-10-22T13:35:35;7.45;;;1.50;;
4786;SDS011;62338;48.832;9.422;2022-10-22T13:37:38;5.28;;;1.38;;
4786;SDS011;62338;48.832;9.422;2022-10-22T13:39:40;5.60;;;1.23;;
4786;SDS011;62338;48.832;9.422;2022-10-22T13:41:42;3.08;;;1.00;;
4786;SDS011;62338;48.832;9.422;2022-10-22T13:43:43;6.72;;;1.50;;
4786;SDS011;62338;48.832;9.422;2022-10-22T13:45:51;4.25;;;1.27;;
4786;SDS011;62338;48.832;9.422;2022-10-22T13:47:55;3.80;;;1.38;;
4786;SDS011;62338;48.832;9.422;2022-10-22T13:49:59;3.60;;;1.20;;
4786;SDS011;62338;48.832;9.422;2022-10-22T13:52:03;3.58;;;1.30;;
4786;SDS011;62338;48.832;9.422;2022-10-22T13:54:15;6.03;;;1.27;;
4786;SDS011;62338;48.832;9.422;2022-10-22T13:56:19;3.47;;;1.25;;
4786;SDS011;62338;48.832;9.422;2022-10-22T13:58:22;3.90;;;1.35;;
4786;SDS011;62338;48.832;9.422;2022-10-22T14:00:25;4.93;;;1.77;;
4786;SDS011;62338;48.832;9.422;2022-10-22T14:02:27;5.05;;;1.42;;
4786;SDS011;62338;48.832;9.422;2022-10-22T14:04:29;5.03;;;1.42;;
4786;SDS011;62338;48.832;9.422;2022-10-22T14:06:31;5.82;;;1.55;;
4786;SDS011;62338;48.832;9.422;2022-10-22T14:08:34;4.30;;;1.15;;
4786;SDS011;62338;48.832;9.422;2022-10-22T14:10:38;4.53;;;1.25;;
4786;SDS011;62338;48.832;9.422;2022-10-22T14:12:39;3.72;;;1.15;;
4786;SDS011;62338;48.832;9.422;2022-10-22T14:14:41;7.90;;;1.73;;
4786;SDS011;62338;48.832;9.422;2022-10-22T14:16:43;4.18;;;1.20;;